Time;durP1;ratioP1;P1;durP2;ratioP2;P2;SDS_P1;SDS_P2;PMS_P1;PMS_P2;Temp;Humidity;BMP_temperature;BMP_pressure;BME280_temperature;BME280_humidity;BME280_pressure;Samples;Min_cycle;Max_cycle;Signal;HPM_P1;HPM_P2
2023/01/14 00:01:03;;;;;;;2.03;0.77;;;6.90;99.90;;;;;;4986708;28;20194;-69
2023/01/14 00:03:31;;;;;;;4.33;1.00;;;6.90;99.90;;;;;;4961782;28;20238;-69
2023/01/14 00:06:00;;;;;;;6.97;1.00;;;6.90;99.90;;;;;;4978620;28;20202;-69
2023/01/14 00:08:27;;;;;;;5.03;1.13;;;6.90;99.90;;;;;;4975423;28;20206;-69
2023/01/14 00:10:54;;;;;;;2.97;0.83;;;6.80;99.90;;;;;;4946046;28;20753;-69
2023/01/14 00:13:21;;;;;;;2.00;0.97;;;6.80;99.90;;;;;;4991364;28;20198;-69
2023/01/14 00:15:52;;;;;;;3.23;1.03;;;6.90;99.90;;;;;;4984613;28;20202;-69
2023/01/14 00:18:20;;;;;;;5.77;1.40;;;6.80;99.90;;;;;;4975740;28;20285;-69
2023/01/14 00:20:56;;;;;;;3.27;1.17;;;6.80;99.90;;;;;;4984148;28;20203;-69
2023/01/14 00:23:25;;;;;;;1.03;0.80;;;6.80;99.90;;;;;;4965666;28;20233;-69
2023/01/14 00:25:52;;;;;;;5.57;1.20;;;6.80;99.90;;;;;;4970185;28;20226;-69
2023/01/14 00:28:19;;;;;;;5.17;0.93;;;6.80;99.90;;;;;;4961314;28;20221;-69
2023/01/14 00:30:46;;;;;;;1.07;0.83;;;6.80;99.90;;;;;;4984744;28;20254;-69
2023/01/14 00:33:13;;;;;;;3.37;1.00;;;7.00;99.90;;;;;;4971817;28;20210;-69
2023/01/14 00:35:40;;;;;;;4.00;1.17;;;6.80;99.90;;;;;;4988884;28;20214;-68
2023/01/14 00:38:07;;;;;;;8.07;1.40;;;6.90;99.90;;;;;;4976899;28;20214;-69
2023/01/14 00:40:35;;;;;;;2.40;1.17;;;6.80;99.90;;;;;;4970182;28;20199;-69
2023/01/14 00:43:02;;;;;;;3.87;1.20;;;6.90;99.90;;;;;;4960702;28;20253;-69
2023/01/14 00:45:28;;;;;;;8.43;1.60;;;6.90;99.90;;;;;;4986408;28;20191;-69
2023/01/14 00:47:56;;;;;;;4.90;1.57;;;6.90;99.90;;;;;;4970684;28;21577;-69
2023/01/14 00:50:23;;;;;;;4.30;1.10;;;6.90;99.90;;;;;;4990088;28;20206;-69
2023/01/14 00:52:50;;;;;;;4.13;0.90;;;6.90;99.90;;;;;;4978721;28;20210;-69
2023/01/14 00:55:17;;;;;;;5.57;0.83;;;7.00;99.90;;;;;;4973916;28;23353;-69
2023/01/14 00:57:45;;;;;;;4.10;1.47;;;7.00;99.90;;;;;;4957785;28;20719;-69
2023/01/14 01:00:13;;;;;;;9.33;1.07;;;7.00;99.90;;;;;;4987712;28;20221;-69
2023/01/14 01:02:40;;;;;;;9.17;1.13;;;7.00;99.90;;;;;;4984729;28;20238;-69
2023/01/14 01:05:07;;;;;;;6.37;1.33;;;7.00;99.90;;;;;;4973986;28;20198;-69
2023/01/14 01:07:34;;;;;;;2.27;0.90;;;7.00;99.90;;;;;;4986021;28;20683;-69
2023/01/14 01:10:01;;;;;;;8.10;1.67;;;7.00;99.90;;;;;;4977800;28;20775;-69
2023/01/14 01:12:27;;;;;;;3.97;0.97;;;7.00;99.90;;;;;;4951239;28;23826;-69
2023/01/14 01:14:55;;;;;;;3.37;1.07;;;7.00;99.90;;;;;;4984198;28;20700;-69
2023/01/14 01:17:22;;;;;;;4.67;1.20;;;7.00;99.90;;;;;;4986795;28;20225;-69
2023/01/14 01:19:50;;;;;;;4.00;1.10;;;7.00;99.90;;;;;;4975682;28;20217;-69
2023/01/14 01:22:18;;;;;;;3.50;1.30;;;7.00;99.90;;;;;;4987356;28;20234;-69
2023/01/14 01:24:45;;;;;;;4.70;1.00;;;6.90;99.90;;;;;;4976320;28;20257;-69
2023/01/14 01:27:12;;;;;;;2.07;0.80;;;7.00;99.90;;;;;;4966776;28;20241;-69
2023/01/14 01:29:39;;;;;;;3.57;0.87;;;6.90;99.90;;;;;;4972088;28;20206;-69
2023/01/14 01:32:07;;;;;;;4.23;1.00;;;6.90;99.90;;;;;;4986678;28;20212;-69
2023/01/14 01:34:34;;;;;;;5.13;1.17;;;7.00;99.90;;;;;;4990083;28;20332;-69
2023/01/14 01:37:01;;;;;;;4.43;0.97;;;6.90;99.90;;;;;;4977522;28;20218;-69
2023/01/14 01:39:27;;;;;;;8.10;1.60;;;7.00;99.90;;;;;;4991279;28;20206;-69
2023/01/14 01:41:54;;;;;;;3.87;1.07;;;7.00;99.90;;;;;;4969066;28;20982;-69
2023/01/14 01:44:58;;;;;;;2.97;0.80;;;7.00;99.90;;;;;;4965640;28;20237;-70
2023/01/14 01:47:26;;;;;;;6.30;1.47;;;7.00;99.90;;;;;;4986855;28;20217;-69
2023/01/14 01:49:53;;;;;;;5.43;1.00;;;7.00;99.90;;;;;;4988007;28;20221;-69
2023/01/14 01:52:26;;;;;;;1.37;0.93;;;7.00;99.90;;;;;;4974847;28;20226;-69
2023/01/14 01:54:58;;;;;;;2.80;0.90;;;7.00;99.90;;;;;;4984939;28;20212;-69
2023/01/14 01:57:25;;;;;;;6.30;1.27;;;7.00;99.90;;;;;;4966853;28;20300;-69
2023/01/14 01:59:55;;;;;;;2.97;0.90;;;7.00;99.90;;;;;;4948190;28;20207;-69
2023/01/14 02:02:24;;;;;;;4.40;0.70;;;7.00;99.90;;;;;;4991329;28;20734;-69
2023/01/14 02:04:52;;;;;;;2.77;0.70;;;7.00;99.90;;;;;;4980899;28;20203;-69
2023/01/14 02:07:21;;;;;;;2.70;0.60;;;7.00;99.90;;;;;;4974918;28;20222;-69
2023/01/14 02:09:50;;;;;;;5.47;0.87;;;7.00;99.90;;;;;;4992391;28;20583;-69
2023/01/14 02:12:33;;;;;;;4.33;0.90;;;7.00;99.90;;;;;;4984691;28;20213;-69
2023/01/14 02:15:13;;;;;;;1.70;0.80;;;7.00;99.90;;;;;;4952156;28;20309;-70
2023/01/14 02:17:52;;;;;;;2.13;0.67;;;7.00;99.90;;;;;;4988204;28;20199;-69
2023/01/14 02:20:26;;;;;;;1.20;0.60;;;7.00;99.90;;;;;;4991524;28;20207;-69
2023/01/14 02:23:28;;;;;;;1.73;0.73;;;6.90;99.90;;;;;;4964750;28;20361;-69
2023/01/14 02:26:16;;;;;;;5.40;0.70;;;6.90;99.90;;;;;;4987554;28;20234;-69
2023/01/14 02:29:00;;;;;;;3.20;0.80;;;6.90;99.90;;;;;;4972839;28;20203;-69
2023/01/14 02:31:33;;;;;;;1.60;0.70;;;6.90;99.90;;;;;;4962243;28;20235;-69
2023/01/14 02:34:05;;;;;;;4.20;0.67;;;6.90;99.90;;;;;;4990374;28;20856;-69
2023/01/14 02:36:39;;;;;;;0.73;0.60;;;6.80;99.90;;;;;;4980377;28;20669;-68
2023/01/14 02:39:13;;;;;;;3.53;1.17;;;6.90;99.90;;;;;;4965713;28;20619;-69
2023/01/14 02:44:33;;;;;;;1.90;1.00;;;6.90;99.90;;;;;;4976269;28;20253;-69
2023/01/14 02:47:05;;;;;;;3.57;1.43;;;6.80;99.90;;;;;;4957285;28;20222;-69
2023/01/14 02:49:36;;;;;;;2.43;0.90;;;6.90;99.90;;;;;;4987689;28;20198;-69
2023/01/14 02:52:06;;;;;;;4.73;1.17;;;6.90;99.90;;;;;;4962392;28;20233;-69
2023/01/14 02:54:32;;;;;;;4.90;1.70;;;6.80;99.90;;;;;;4987993;28;20670;-69
2023/01/14 02:57:05;;;;;;;2.73;0.90;;;6.90;99.90;;;;;;4990528;28;20210;-69
2023/01/14 02:59:46;;;;;;;7.10;1.43;;;6.90;99.90;;;;;;4975743;28;20309;-69
2023/01/14 03:02:44;;;;;;;6.33;1.10;;;6.80;99.90;;;;;;4958985;28;20216;-69
2023/01/14 03:05:42;;;;;;;3.60;1.30;;;6.90;99.90;;;;;;4956563;28;21309;-69
2023/01/14 03:08:18;;;;;;;12.20;1.73;;;6.90;99.90;;;;;;4967145;28;20230;-69
2023/01/14 03:10:50;;;;;;;8.23;1.77;;;6.90;99.90;;;;;;4990939;28;20206;-69
2023/01/14 03:13:22;;;;;;;5.40;1.80;;;6.90;99.90;;;;;;4980828;28;20586;-69
2023/01/14 03:15:54;;;;;;;9.57;1.77;;;7.00;99.90;;;;;;4982116;28;20238;-69
2023/01/14 03:18:27;;;;;;;5.47;1.90;;;7.00;99.90;;;;;;4970022;28;20203;-69
2023/01/14 03:21:00;;;;;;;7.90;1.70;;;7.00;99.90;;;;;;4980291;28;20209;-70
2023/01/14 03:23:30;;;;;;;7.80;1.40;;;7.00;99.90;;;;;;4963111;28;22336;-69
2023/01/14 03:25:58;;;;;;;7.07;1.90;;;7.00;99.90;;;;;;4985361;28;20247;-69
2023/01/14 03:28:46;;;;;;;9.23;1.70;;;7.10;99.90;;;;;;4988238;28;20668;-69
2023/01/14 03:31:17;;;;;;;4.93;1.57;;;7.10;99.90;;;;;;4965977;28;20223;-69
2023/01/14 03:33:50;;;;;;;6.07;1.67;;;7.10;99.90;;;;;;4953533;28;20211;-69
2023/01/14 03:36:17;;;;;;;8.73;1.90;;;7.10;99.90;;;;;;4979230;28;20230;-69
2023/01/14 03:38:48;;;;;;;7.10;1.63;;;7.10;99.90;;;;;;4973593;28;20214;-69
2023/01/14 03:42:17;;;;;;;6.47;1.63;;;7.10;99.90;;;;;;4993216;28;20202;-69
2023/01/14 03:44:11;;;;;;;9.30;2.03;;;7.10;99.90;;;;;;4968840;28;20850;-69
2023/01/14 03:46:38;;;;;;;8.20;2.00;;;7.10;99.90;;;;;;4969247;28;20985;-69
2023/01/14 03:49:06;;;;;;;6.50;1.73;;;7.20;99.90;;;;;;4955727;28;20242;-69
2023/01/14 03:51:38;;;;;;;12.17;2.23;;;7.20;99.90;;;;;;4966717;28;20203;-69
2023/01/14 03:54:13;;;;;;;7.60;1.63;;;7.20;99.90;;;;;;4978417;28;20238;-69
2023/01/14 03:56:47;;;;;;;11.27;2.00;;;7.20;99.90;;;;;;4983949;28;20577;-68
2023/01/14 03:59:19;;;;;;;8.93;2.20;;;7.10;99.90;;;;;;4988008;28;20276;-70
2023/01/14 04:01:49;;;;;;;12.03;1.90;;;7.20;99.90;;;;;;4965022;28;20211;-70
2023/01/14 04:04:18;;;;;;;7.73;1.53;;;7.20;99.90;;;;;;4965389;28;20238;-70
2023/01/14 04:06:45;;;;;;;10.07;2.07;;;7.20;99.90;;;;;;4970654;28;20579;-71
2023/01/14 04:09:12;;;;;;;3.90;1.47;;;7.20;99.90;;;;;;4972726;28;21181;-70
2023/01/14 04:11:40;;;;;;;8.33;1.93;;;7.20;99.90;;;;;;4975880;28;20211;-70
2023/01/14 04:17:00;;;;;;;11.63;2.07;;;7.20;99.90;;;;;;4913363;28;20206;-70
2023/01/14 04:19:34;;;;;;;9.10;1.63;;;7.20;99.90;;;;;;4961183;28;20222;-70
2023/01/14 04:22:01;;;;;;;4.23;1.43;;;7.20;99.90;;;;;;4959969;28;20239;-70
2023/01/14 04:24:28;;;;;;;8.67;1.77;;;7.20;99.90;;;;;;4988223;28;20226;-67
2023/01/14 04:26:54;;;;;;;6.80;1.70;;;7.20;99.90;;;;;;4976688;28;20320;-67
2023/01/14 04:29:21;;;;;;;7.30;1.57;;;7.20;99.90;;;;;;4985224;28;20206;-67
2023/01/14 04:31:48;;;;;;;9.63;2.40;;;7.20;99.90;;;;;;4970809;28;20203;-68
2023/01/14 04:34:15;;;;;;;8.30;2.27;;;7.20;99.90;;;;;;4961404;28;20226;-68
2023/01/14 04:36:43;;;;;;;8.53;1.90;;;7.20;99.90;;;;;;4981343;28;20206;-67
2023/01/14 04:39:10;;;;;;;8.80;2.27;;;7.20;99.90;;;;;;4977450;28;20199;-70
2023/01/14 04:44:21;;;;;;;10.83;1.50;;;7.20;99.90;;;;;;4989017;28;20241;-68
2023/01/14 04:46:48;;;;;;;8.97;1.97;;;7.20;99.90;;;;;;4972452;28;20207;-70
2023/01/14 04:49:15;;;;;;;9.93;1.80;;;7.20;99.90;;;;;;4968451;28;20699;-68
2023/01/14 04:51:43;;;;;;;6.87;2.07;;;7.10;99.90;;;;;;4950183;28;21000;-67
2023/01/14 04:54:09;;;;;;;9.23;2.17;;;7.20;99.90;;;;;;4948381;28;20241;-70
2023/01/14 04:56:36;;;;;;;11.93;2.40;;;7.10;99.90;;;;;;4990887;28;20203;-68
2023/01/14 04:59:03;;;;;;;9.33;1.83;;;7.20;99.90;;;;;;4968707;28;20209;-68
2023/01/14 05:01:30;;;;;;;11.10;1.87;;;7.10;99.90;;;;;;4979595;28;20576;-68
2023/01/14 05:03:58;;;;;;;7.90;2.30;;;7.10;99.90;;;;;;4976755;28;20222;-70
2023/01/14 05:06:26;;;;;;;7.97;1.80;;;7.10;99.90;;;;;;4962558;28;20221;-68
2023/01/14 05:08:54;;;;;;;8.43;2.27;;;7.10;99.90;;;;;;4968268;28;20218;-68
2023/01/14 05:11:21;;;;;;;6.43;2.17;;;7.10;99.90;;;;;;4988720;28;20207;-68
2023/01/14 05:13:48;;;;;;;5.73;1.80;;;7.10;99.90;;;;;;4977744;28;20207;-69
2023/01/14 05:16:17;;;;;;;12.93;2.10;;;7.10;99.90;;;;;;4974628;28;21327;-68
2023/01/14 05:18:44;;;;;;;12.90;2.00;;;7.10;99.90;;;;;;4978946;28;20206;-69
2023/01/14 05:21:11;;;;;;;9.80;2.23;;;7.00;99.90;;;;;;4960905;28;20215;-68
2023/01/14 05:23:38;;;;;;;10.77;1.77;;;7.00;99.90;;;;;;4990351;28;20958;-68
2023/01/14 05:26:07;;;;;;;3.93;1.90;;;7.00;99.90;;;;;;4986196;28;20230;-68
2023/01/14 05:28:34;;;;;;;6.30;1.53;;;7.00;99.90;;;;;;4978321;28;20206;-68
2023/01/14 05:31:00;;;;;;;12.67;1.80;;;6.90;99.90;;;;;;4985006;28;20194;-69
2023/01/14 05:33:27;;;;;;;7.17;2.20;;;6.90;99.90;;;;;;4972203;28;20825;-69
2023/01/14 05:35:58;;;;;;;8.17;1.80;;;7.00;99.90;;;;;;4970868;28;20198;-69
2023/01/14 05:38:25;;;;;;;10.23;1.77;;;7.00;99.90;;;;;;4991104;28;20207;-68
2023/01/14 05:40:53;;;;;;;6.40;2.17;;;7.00;99.90;;;;;;4968644;28;20219;-68
2023/01/14 05:46:07;;;;;;;9.30;1.70;;;6.90;99.90;;;;;;4976747;28;20229;-69
2023/01/14 05:48:35;;;;;;;20.70;1.97;;;6.90;99.90;;;;;;4974287;28;20566;-68
2023/01/14 05:51:04;;;;;;;6.93;2.20;;;6.90;99.90;;;;;;4973985;28;20223;-68
2023/01/14 05:53:32;;;;;;;8.77;1.90;;;6.90;99.90;;;;;;4962889;28;20219;-68
2023/01/14 05:55:59;;;;;;;10.17;3.20;;;6.90;99.90;;;;;;4973763;28;20268;-68
2023/01/14 05:58:28;;;;;;;9.33;2.70;;;6.90;99.90;;;;;;4991490;28;20194;-68
2023/01/14 06:06:26;;;;;;;9.73;2.07;;;6.80;99.90;;;;;;4987971;28;20290;-68
2023/01/14 06:08:55;;;;;;;9.20;2.40;;;6.80;99.90;;;;;;4965372;28;20214;-68
2023/01/14 06:11:23;;;;;;;6.40;2.00;;;6.80;99.90;;;;;;4967573;28;20207;-68
2023/01/14 06:13:54;;;;;;;9.87;2.70;;;6.70;99.90;;;;;;4994316;28;20836;-68
2023/01/14 06:16:21;;;;;;;9.33;2.83;;;6.70;99.90;;;;;;4971358;28;20209;-68
2023/01/14 06:18:48;;;;;;;10.17;2.67;;;6.70;99.90;;;;;;4985500;28;20218;-68
2023/01/14 06:21:17;;;;;;;8.50;2.30;;;6.70;99.90;;;;;;4978618;28;20446;-68
2023/01/14 06:23:44;;;;;;;5.87;2.60;;;6.70;99.90;;;;;;4962695;28;20850;-68
2023/01/14 06:26:11;;;;;;;15.20;2.93;;;6.60;99.90;;;;;;4979669;28;20223;-68
2023/01/14 06:28:39;;;;;;;7.90;3.13;;;6.60;99.90;;;;;;4970027;28;20238;-68
2023/01/14 06:31:11;;;;;;;14.60;3.87;;;6.60;99.90;;;;;;4981606;28;20226;-68
2023/01/14 06:33:38;;;;;;;11.20;2.67;;;6.50;99.90;;;;;;4972742;28;20219;-68
2023/01/14 06:36:06;;;;;;;9.10;3.20;;;6.60;99.90;;;;;;4971893;28;20223;-68
2023/01/14 06:38:33;;;;;;;15.73;3.37;;;6.70;99.90;;;;;;4960987;28;20220;-68
2023/01/14 06:41:00;;;;;;;10.60;3.50;;;6.50;99.90;;;;;;4974571;28;20225;-69
2023/01/14 06:43:28;;;;;;;17.77;3.93;;;6.50;99.90;;;;;;4959236;28;20234;-68
2023/01/14 06:45:55;;;;;;;14.23;3.90;;;6.50;99.90;;;;;;4970775;28;20353;-68
2023/01/14 06:48:24;;;;;;;9.90;3.97;;;6.50;99.90;;;;;;4962828;28;20222;-68
2023/01/14 06:50:51;;;;;;;13.43;3.23;;;6.50;99.90;;;;;;4964703;28;20226;-68
2023/01/14 06:53:18;;;;;;;12.47;3.53;;;6.50;99.90;;;;;;4984103;28;20205;-68
2023/01/14 06:55:45;;;;;;;10.93;2.70;;;6.50;99.90;;;;;;4953351;28;20215;-68
2023/01/14 06:58:12;;;;;;;8.80;2.40;;;6.50;99.90;;;;;;4967659;28;20301;-68
2023/01/14 07:00:39;;;;;;;11.03;2.83;;;6.40;99.90;;;;;;4988229;22;20234;-68
2023/01/14 07:03:06;;;;;;;10.80;3.20;;;6.50;99.90;;;;;;5001153;28;20445;-68
2023/01/14 07:05:42;;;;;;;13.67;3.03;;;6.40;99.90;;;;;;4983216;28;20297;-68
2023/01/14 07:08:09;;;;;;;10.73;2.87;;;6.40;99.90;;;;;;4992444;28;20351;-68
2023/01/14 07:10:36;;;;;;;14.13;2.87;;;6.40;99.90;;;;;;4978334;28;20228;-69
2023/01/14 07:13:02;;;;;;;11.13;2.80;;;6.40;99.90;;;;;;5007415;28;20226;-68
2023/01/14 07:15:29;;;;;;;6.87;2.97;;;6.40;99.90;;;;;;5000979;28;20248;-69
2023/01/14 07:17:56;;;;;;;15.63;3.03;;;6.40;99.90;;;;;;4985967;28;20226;-69
2023/01/14 07:20:23;;;;;;;14.50;2.73;;;6.40;99.90;;;;;;4996530;28;20232;-69
2023/01/14 07:22:51;;;;;;;18.30;3.70;;;6.30;99.90;;;;;;5003997;28;20229;-69
2023/01/14 07:25:18;;;;;;;11.13;3.50;;;6.40;99.90;;;;;;4981229;28;20226;-69
2023/01/14 07:27:45;;;;;;;10.07;3.40;;;6.40;99.90;;;;;;5004117;28;20241;-69
2023/01/14 07:30:13;;;;;;;11.43;3.47;;;6.40;99.90;;;;;;5004662;28;20934;-69
2023/01/14 07:32:40;;;;;;;10.23;2.53;;;6.50;99.90;;;;;;5008104;28;20224;-69
2023/01/14 07:35:07;;;;;;;14.87;2.90;;;6.40;99.90;;;;;;5002544;28;20621;-69
2023/01/14 07:37:34;;;;;;;11.40;3.07;;;6.40;99.90;;;;;;5008952;28;20260;-69
2023/01/14 07:40:02;;;;;;;13.77;2.97;;;6.30;99.90;;;;;;5010411;28;21215;-69
2023/01/14 07:42:29;;;;;;;18.53;3.47;;;6.40;99.90;;;;;;4976996;28;20229;-69
2023/01/14 07:44:56;;;;;;;9.47;2.73;;;6.40;99.90;;;;;;5003724;28;20238;-69
2023/01/14 07:47:22;;;;;;;7.00;2.87;;;6.40;99.90;;;;;;5000148;28;20241;-69
2023/01/14 07:49:49;;;;;;;11.57;3.20;;;6.30;99.90;;;;;;4987959;28;20237;-69
2023/01/14 07:52:16;;;;;;;16.57;3.47;;;6.40;99.90;;;;;;4987108;28;20240;-69
2023/01/14 07:54:43;;;;;;;16.23;4.03;;;6.40;99.90;;;;;;5010455;28;20236;-69
2023/01/14 07:57:13;;;;;;;25.13;3.80;;;6.40;99.90;;;;;;4985892;28;20229;-69
2023/01/14 07:59:40;;;;;;;16.10;3.50;;;6.40;99.90;;;;;;4999396;28;20225;-69
2023/01/14 08:02:13;;;;;;;11.90;3.63;;;6.40;99.90;;;;;;4990503;28;20221;-69
2023/01/14 08:04:40;;;;;;;15.47;3.57;;;6.40;99.90;;;;;;5003420;28;20229;-69
2023/01/14 08:07:08;;;;;;;14.27;3.40;;;6.40;99.90;;;;;;5013212;22;20284;-69
2023/01/14 08:09:35;;;;;;;15.77;3.53;;;6.40;99.90;;;;;;5058226;27;20223;-69
2023/01/14 08:14:34;;;;;;;13.97;3.90;;;6.40;99.90;;;;;;5060251;22;20235;-69
2023/01/14 08:17:02;;;;;;;18.77;4.93;;;6.50;99.90;;;;;;5029956;28;20219;-69
2023/01/14 08:19:30;;;;;;;12.90;3.37;;;6.40;99.90;;;;;;5027138;28;20573;-69
2023/01/14 08:21:57;;;;;;;17.43;3.67;;;6.40;99.90;;;;;;5039033;28;20703;-69
2023/01/14 08:24:24;;;;;;;17.57;4.40;;;6.40;99.90;;;;;;5020382;28;20231;-69
2023/01/14 08:26:50;;;;;;;13.70;4.17;;;6.40;99.90;;;;;;5045360;28;20222;-69
2023/01/14 08:29:17;;;;;;;13.10;3.83;;;6.50;99.90;;;;;;5017741;28;20725;-70
2023/01/14 08:31:51;;;;;;;12.33;3.80;;;6.50;99.90;;;;;;5059607;28;20786;-69
2023/01/14 08:34:18;;;;;;;14.07;4.17;;;6.50;99.90;;;;;;5023197;28;20231;-69
2023/01/14 08:36:45;;;;;;;13.20;3.43;;;6.50;99.90;;;;;;5030761;28;24618;-69
2023/01/14 08:39:11;;;;;;;15.27;4.03;;;6.50;99.90;;;;;;5026502;28;21310;-69
2023/01/14 08:41:38;;;;;;;19.67;4.20;;;6.50;99.90;;;;;;5023151;28;20220;-70
2023/01/14 08:44:05;;;;;;;13.03;3.77;;;6.40;99.90;;;;;;5007126;28;27594;-70
2023/01/14 08:46:32;;;;;;;19.83;4.60;;;6.50;99.90;;;;;;5033697;28;20232;-69
2023/01/14 08:49:05;;;;;;;16.13;3.57;;;6.50;99.90;;;;;;5023853;28;20997;-69
2023/01/14 08:51:31;;;;;;;22.17;3.93;;;6.50;99.90;;;;;;5024683;28;20473;-69
2023/01/14 08:54:00;;;;;;;17.33;3.60;;;6.50;99.90;;;;;;5025523;28;20988;-69
2023/01/14 08:56:28;;;;;;;10.93;3.57;;;6.50;99.90;;;;;;5047283;28;20979;-70
2023/01/14 08:58:56;;;;;;;23.73;4.20;;;6.50;99.90;;;;;;5046005;28;20764;-70
2023/01/14 09:01:23;;;;;;;18.07;4.63;;;6.60;99.90;;;;;;5013473;28;20228;-70
2023/01/14 09:03:52;;;;;;;18.17;3.73;;;6.60;99.90;;;;;;5021188;28;21933;-70
2023/01/14 09:06:20;;;;;;;12.20;3.70;;;6.60;99.90;;;;;;5046189;28;20231;-70
2023/01/14 09:17:07;;;;;;;15.53;4.03;;;6.60;99.90;;;;;;4955467;28;20235;-69
2023/01/14 09:19:35;;;;;;;15.93;3.80;;;6.60;99.90;;;;;;5028915;28;20301;-69
2023/01/14 09:22:04;;;;;;;23.73;5.27;;;6.70;99.90;;;;;;5013305;28;20239;-69
2023/01/14 09:24:31;;;;;;;19.77;4.43;;;6.60;99.90;;;;;;5026026;28;20228;-70
2023/01/14 09:26:57;;;;;;;17.33;5.23;;;6.70;99.90;;;;;;5019369;28;20650;-69
2023/01/14 09:29:24;;;;;;;20.80;4.07;;;6.70;99.90;;;;;;5036390;28;20217;-70
2023/01/14 09:31:51;;;;;;;17.77;4.50;;;6.80;99.90;;;;;;4999735;28;20237;-67
2023/01/14 09:34:18;;;;;;;12.33;4.83;;;6.70;99.90;;;;;;5033600;28;20221;-67
2023/01/14 09:36:45;;;;;;;22.53;4.47;;;6.70;99.90;;;;;;5024490;28;20331;-67
2023/01/14 09:39:15;;;;;;;14.27;4.13;;;6.80;99.90;;;;;;5001767;28;20235;-67
2023/01/14 09:41:49;;;;;;;15.87;4.03;;;6.80;99.90;;;;;;5024529;28;20265;-67
2023/01/14 09:44:16;;;;;;;20.03;4.30;;;6.80;99.90;;;;;;5037390;28;20220;-67
2023/01/14 09:46:43;;;;;;;14.23;3.50;;;6.80;99.90;;;;;;5016471;28;20228;-68
2023/01/14 09:49:15;;;;;;;18.63;3.90;;;6.90;99.90;;;;;;5017971;28;20276;-67
2023/01/14 09:52:07;;;;;;;12.80;3.73;;;6.80;99.90;;;;;;5032570;28;20227;-67
2023/01/14 09:54:45;;;;;;;14.23;3.67;;;6.80;99.90;;;;;;5020713;28;20229;-67
2023/01/14 09:57:20;;;;;;;15.10;3.23;;;6.80;99.90;;;;;;5016450;28;20252;-67
2023/01/14 09:59:56;;;;;;;14.23;3.20;;;6.80;99.90;;;;;;5014361;28;20260;-67
2023/01/14 10:02:26;;;;;;;24.73;4.00;;;6.90;99.90;;;;;;5030822;28;20224;-68
2023/01/14 10:05:14;;;;;;;15.57;3.40;;;6.80;99.90;;;;;;4997057;22;20559;-68
2023/01/14 10:07:41;;;;;;;14.73;3.00;;;6.90;99.90;;;;;;5044410;28;20276;-67
2023/01/14 10:10:24;;;;;;;14.47;3.63;;;6.90;99.90;;;;;;5033911;28;20218;-68
2023/01/14 10:12:53;;;;;;;15.10;3.17;;;6.90;99.90;;;;;;5025971;28;20216;-68
2023/01/14 10:15:34;;;;;;;18.50;3.50;;;7.00;99.90;;;;;;5053253;28;20216;-68
2023/01/14 10:18:07;;;;;;;15.13;3.83;;;6.90;99.90;;;;;;5009650;28;21126;-68
2023/01/14 10:20:38;;;;;;;20.10;4.20;;;6.90;99.90;;;;;;5060389;28;20216;-68
2023/01/14 10:23:12;;;;;;;22.60;4.03;;;6.90;99.90;;;;;;5057732;28;21185;-68
2023/01/14 10:25:48;;;;;;;18.00;4.30;;;6.90;99.90;;;;;;5053399;22;21243;-68
2023/01/14 10:28:18;;;;;;;13.67;4.07;;;6.90;99.90;;;;;;5027640;28;20235;-68
2023/01/14 10:30:48;;;;;;;17.60;3.00;;;6.90;99.90;;;;;;5018973;28;20233;-68
2023/01/14 10:33:17;;;;;;;11.93;2.97;;;6.90;99.90;;;;;;5024399;28;20240;-68
2023/01/14 10:35:46;;;;;;;14.70;3.13;;;6.90;99.90;;;;;;5003508;28;20229;-68
2023/01/14 10:38:17;;;;;;;8.23;2.50;;;6.90;99.90;;;;;;5036136;28;20217;-68
2023/01/14 10:40:46;;;;;;;9.93;2.47;;;6.90;99.90;;;;;;5033167;28;20221;-68
2023/01/14 10:43:22;;;;;;;8.23;1.90;;;6.90;99.90;;;;;;5034759;28;20221;-68
2023/01/14 10:45:49;;;;;;;21.27;2.97;;;6.90;99.90;;;;;;5023285;28;20236;-68
2023/01/14 10:48:20;;;;;;;9.10;2.63;;;6.80;99.90;;;;;;5026465;28;20232;-68
2023/01/14 10:50:48;;;;;;;17.03;3.20;;;6.80;99.90;;;;;;5006554;28;20248;-68
2023/01/14 10:53:19;;;;;;;13.97;2.50;;;6.00;99.90;;;;;;5044157;28;20222;-69
2023/01/14 10:55:54;;;;;;;8.07;2.63;;;6.80;99.90;;;;;;5060503;28;20956;-68
2023/01/14 10:58:33;;;;;;;12.33;2.63;;;6.80;99.90;;;;;;5038600;28;20831;-69
2023/01/14 11:01:06;;;;;;;13.80;3.27;;;6.80;99.90;;;;;;5048376;28;20227;-68
2023/01/14 11:03:35;;;;;;;22.27;3.63;;;6.80;99.90;;;;;;5046878;28;20760;-68
2023/01/14 11:06:08;;;;;;;12.00;2.83;;;6.80;99.90;;;;;;5014022;28;20243;-68
2023/01/14 11:08:37;;;;;;;7.30;2.17;;;6.80;99.90;;;;;;5051667;28;20221;-68
2023/01/14 11:11:08;;;;;;;9.77;2.37;;;6.70;99.90;;;;;;5054898;28;20277;-68
2023/01/14 11:13:41;;;;;;;11.60;2.00;;;6.70;99.90;;;;;;5032160;28;20974;-68
2023/01/14 11:16:28;;;;;;;9.33;2.13;;;6.70;99.90;;;;;;5051208;28;21053;-68
2023/01/14 11:18:57;;;;;;;10.77;2.27;;;6.70;99.90;;;;;;5039713;28;20224;-69
2023/01/14 11:21:26;;;;;;;11.67;2.17;;;6.70;99.90;;;;;;5029392;28;20220;-69
2023/01/14 11:23:56;;;;;;;10.63;2.67;;;6.70;99.90;;;;;;5056145;28;20451;-69
2023/01/14 11:26:27;;;;;;;10.03;2.67;;;6.70;99.90;;;;;;5056620;28;20236;-69
2023/01/14 11:29:03;;;;;;;10.87;2.60;;;6.70;99.90;;;;;;5035269;28;20223;-69
2023/01/14 11:31:32;;;;;;;10.10;3.10;;;6.70;99.90;;;;;;5052126;28;20223;-69
2023/01/14 11:33:59;;;;;;;14.27;3.93;;;6.70;99.90;;;;;;5031791;28;20224;-69
2023/01/14 11:36:29;;;;;;;15.93;4.47;;;6.70;99.90;;;;;;5039625;28;20225;-69
2023/01/14 11:38:58;;;;;;;7.83;3.50;;;6.70;99.90;;;;;;5044542;28;20521;-70
2023/01/14 11:41:36;;;;;;;10.03;3.30;;;6.70;99.90;;;;;;5052262;28;20219;-69
2023/01/14 11:44:04;;;;;;;6.60;2.17;;;6.70;99.90;;;;;;5042462;28;20603;-69
2023/01/14 11:46:34;;;;;;;10.87;2.47;;;6.80;99.90;;;;;;5040419;28;20232;-69
2023/01/14 11:49:05;;;;;;;11.10;2.30;;;6.80;99.90;;;;;;5046657;28;20220;-69
2023/01/14 11:51:33;;;;;;;11.70;2.03;;;6.80;99.90;;;;;;5047150;28;20807;-69
2023/01/14 11:54:04;;;;;;;13.60;2.50;;;6.80;99.90;;;;;;5037608;28;20342;-69
2023/01/14 11:56:36;;;;;;;4.87;1.93;;;6.80;99.90;;;;;;5057332;28;20223;-70
2023/01/14 11:59:15;;;;;;;10.03;1.70;;;6.80;99.90;;;;;;5064475;28;20242;-69
2023/01/14 12:01:47;;;;;;;12.50;2.20;;;6.90;99.90;;;;;;5044738;28;20406;-69
2023/01/14 12:04:19;;;;;;;6.13;1.50;;;6.90;99.90;;;;;;5048762;28;21141;-69
2023/01/14 12:06:49;;;;;;;10.80;1.93;;;6.90;99.90;;;;;;5053425;28;20244;-69
2023/01/14 12:09:22;;;;;;;22.23;2.50;;;6.90;99.90;;;;;;5022571;28;20232;-69
2023/01/14 12:11:57;;;;;;;12.27;1.60;;;6.90;99.90;;;;;;5057381;28;20224;-69
2023/01/14 12:17:27;;;;;;;5.20;1.73;;;7.00;99.90;;;;;;5043310;28;20302;-69
2023/01/14 12:19:59;;;;;;;4.90;1.30;;;7.00;99.90;;;;;;5042409;28;20720;-69
2023/01/14 12:22:32;;;;;;;7.50;1.60;;;7.00;99.90;;;;;;5056542;28;20215;-69
2023/01/14 12:25:18;;;;;;;4.40;1.50;;;7.00;99.90;;;;;;5043988;28;20269;-69
2023/01/14 12:27:52;;;;;;;4.80;1.57;;;7.00;99.90;;;;;;5063071;28;20233;-69
2023/01/14 12:30:37;;;;;;;2.37;1.30;;;7.00;99.90;;;;;;5068507;28;20210;-71
2023/01/14 12:33:10;;;;;;;7.70;1.60;;;7.00;99.90;;;;;;5065502;28;20192;-69
2023/01/14 12:35:42;;;;;;;5.70;1.40;;;7.10;99.90;;;;;;5052580;28;20234;-69
2023/01/14 12:46:30;;;;;;;5.87;1.40;;;7.20;99.90;;;;;;5048568;28;20239;-69
2023/01/14 12:48:58;;;;;;;6.73;2.30;;;7.20;99.90;;;;;;5049075;28;20222;-69
2023/01/14 12:51:29;;;;;;;5.73;1.70;;;7.20;99.90;;;;;;5048041;28;20296;-69
2023/01/14 12:53:58;;;;;;;5.57;1.60;;;7.20;99.90;;;;;;5044720;28;20231;-69
2023/01/14 12:56:29;;;;;;;5.00;1.97;;;7.30;99.90;;;;;;5016799;28;20239;-69
2023/01/14 12:59:01;;;;;;;3.53;1.83;;;7.20;99.90;;;;;;5032034;28;20223;-69
2023/01/14 13:01:31;;;;;;;3.70;2.10;;;7.20;99.90;;;;;;5021416;28;20285;-69
2023/01/14 13:04:02;;;;;;;5.80;1.80;;;7.20;99.90;;;;;;5034373;28;20224;-69
2023/01/14 13:06:33;;;;;;;9.23;3.20;;;7.20;99.90;;;;;;5021533;28;20232;-69
2023/01/14 13:09:02;;;;;;;7.20;2.50;;;7.30;99.90;;;;;;5022624;28;20228;-69
2023/01/14 13:11:40;;;;;;;7.67;3.43;;;7.20;99.90;;;;;;5015612;28;20224;-69
2023/01/14 13:14:21;;;;;;;5.97;2.80;;;7.30;99.90;;;;;;5060006;28;20306;-69
2023/01/14 13:16:48;;;;;;;6.60;2.97;;;7.20;99.90;;;;;;5037991;28;20277;-69
2023/01/14 13:19:47;;;;;;;11.90;3.07;;;7.20;99.90;;;;;;5046461;28;20230;-69
2023/01/14 13:22:43;;;;;;;6.20;2.90;;;7.30;99.90;;;;;;5038414;28;20207;-69
2023/01/14 13:25:32;;;;;;;7.50;2.77;;;7.30;99.90;;;;;;5059197;28;20719;-69
2023/01/14 13:28:00;;;;;;;9.17;2.70;;;7.30;99.90;;;;;;5016155;28;20250;-69
2023/01/14 13:30:42;;;;;;;6.50;2.23;;;7.30;99.90;;;;;;5056998;28;20192;-69
2023/01/14 13:33:24;;;;;;;2.60;1.70;;;7.30;99.90;;;;;;5041025;28;20258;-69
2023/01/14 13:36:12;;;;;;;6.50;1.90;;;7.30;99.90;;;;;;5029080;28;20208;-69
2023/01/14 13:38:43;;;;;;;4.43;2.13;;;7.30;99.90;;;;;;5037153;28;20709;-69
2023/01/14 13:41:12;;;;;;;5.10;2.40;;;7.40;99.90;;;;;;5046690;28;20756;-69
2023/01/14 13:43:47;;;;;;;7.03;1.87;;;7.40;99.90;;;;;;5018754;28;20207;-69
2023/01/14 13:46:21;;;;;;;5.17;2.00;;;7.40;99.90;;;;;;5063370;22;20907;-69
2023/01/14 13:48:52;;;;;;;2.77;1.97;;;7.40;99.90;;;;;;5024165;28;20208;-69